Time;durP1;ratioP1;P1;durP2;ratioP2;P2;SDS_P1;SDS_P2;PMS_P1;PMS_P2;Temp;Humidity;BMP_temperature;BMP_pressure;BME280_temperature;BME280_humidity;BME280_pressure;Samples;Min_cycle;Max_cycle;Signal;HPM_P1;HPM_P2
2024/01/17 00:00:38;;;;;;;30.60;10.50;;;;;;;-9.12;88.17;98881.36;109648;1250;67701;-63
2024/01/17 00:03:46;;;;;;;34.30;11.50;;;;;;;-9.13;87.95;98881.20;109732;1250;74954;-64
2024/01/17 00:06:34;;;;;;;36.40;11.70;;;;;;;-9.14;87.62;98880.72;109580;1251;59772;-62
2024/01/17 00:09:22;;;;;;;38.20;11.90;;;;;;;-9.16;86.85;98880.74;108877;1251;1002534;-63
2024/01/17 00:12:10;;;;;;;36.70;11.20;;;;;;;-9.22;86.45;98876.71;109784;1250;71540;-64
2024/01/17 00:14:58;;;;;;;24.90;8.10;;;;;;;-9.32;86.23;98875.49;109766;1250;67740;-64
2024/01/17 00:17:49;;;;;;;41.70;13.90;;;;;;;-9.45;86.87;98870.73;109746;1250;72759;-63
2024/01/17 00:20:37;;;;;;;32.10;10.50;;;;;;;-9.57;86.94;98864.55;109733;1250;57819;-63
2024/01/17 00:23:24;;;;;;;42.70;14.40;;;;;;;-9.67;87.55;98863.68;109725;1251;60073;-64
2024/01/17 00:26:12;;;;;;;38.00;14.30;;;;;;;-9.73;87.28;98859.30;109673;1251;73162;-63
2024/01/17 00:29:00;;;;;;;40.70;14.00;;;;;;;-9.79;87.13;98848.91;109624;1250;67561;-65
2024/01/17 00:31:48;;;;;;;43.80;14.80;;;;;;;-9.89;87.38;98841.50;109605;1251;72986;-65
2024/01/17 00:34:36;;;;;;;44.60;14.90;;;;;;;-9.87;87.77;98845.09;109710;1250;58953;-66
2024/01/17 00:37:27;;;;;;;45.10;15.00;;;;;;;-9.92;88.10;98846.36;109748;1250;60435;-65
2024/01/17 00:40:15;;;;;;;43.40;14.00;;;;;;;-9.95;88.17;98847.93;108845;1251;1002236;-65
2024/01/17 00:43:03;;;;;;;38.90;13.20;;;;;;;-9.97;88.71;98855.70;109549;1250;67995;-65
2024/01/17 00:45:50;;;;;;;30.80;9.80;;;;;;;-10.00;89.30;98856.42;109584;1250;71382;-67
2024/01/17 00:48:39;;;;;;;35.20;11.80;;;;;;;-10.02;90.00;98861.42;109782;1250;57187;-65
2024/01/17 00:51:26;;;;;;;38.60;13.50;;;;;;;-10.04;90.86;98863.17;109753;1250;59034;-63
2024/01/17 00:54:14;;;;;;;40.10;13.10;;;;;;;-10.04;90.57;98859.91;109738;1250;72837;-65
2024/01/17 00:57:03;;;;;;;32.80;11.50;;;;;;;-10.03;91.83;98853.71;109788;1250;67559;-64
2024/01/17 00:59:51;;;;;;;30.70;9.70;;;;;;;-10.01;92.35;98844.60;109676;1251;72707;-63
2024/01/17 01:02:39;;;;;;;34.20;9.50;;;;;;;-10.01;91.91;98838.59;109592;1253;60030;-64
2024/01/17 01:05:28;;;;;;;46.20;14.40;;;;;;;-10.01;92.70;98837.90;109795;1251;58836;-65
2024/01/17 01:08:16;;;;;;;37.50;12.80;;;;;;;-10.03;92.18;98836.55;108994;1250;1002862;-63
2024/01/17 01:11:03;;;;;;;32.70;11.10;;;;;;;-10.04;92.73;98838.27;108839;1251;1003062;-64
2024/01/17 01:13:52;;;;;;;35.20;11.40;;;;;;;-10.06;92.31;98835.89;109646;1250;72380;-62
2024/01/17 01:16:40;;;;;;;39.20;13.10;;;;;;;-10.07;92.48;98831.63;109597;1250;58213;-64
2024/01/17 01:19:30;;;;;;;36.70;11.70;;;;;;;-10.09;92.46;98827.89;109660;1250;59080;-63
2024/01/17 01:22:18;;;;;;;48.90;14.90;;;;;;;-10.10;93.28;98825.30;109693;1250;74163;-64
2024/01/17 01:25:07;;;;;;;27.90;8.90;;;;;;;-10.11;92.87;98818.98;108785;1251;1002405;-63
2024/01/17 01:27:55;;;;;;;38.80;13.00;;;;;;;-10.11;93.03;98815.55;109769;1250;70514;-62
2024/01/17 01:30:42;;;;;;;43.00;14.60;;;;;;;-10.12;93.20;98817.98;109617;1250;59574;-63
2024/01/17 01:33:31;;;;;;;36.20;12.70;;;;;;;-10.14;93.66;98812.34;108958;1250;1002546;-61
2024/01/17 01:36:19;;;;;;;38.70;13.80;;;;;;;-10.12;94.51;98814.20;108973;1250;1002718;-64
2024/01/17 01:39:07;;;;;;;39.30;13.40;;;;;;;-10.08;95.31;98813.46;109748;1250;68656;-63
2024/01/17 01:41:56;;;;;;;34.20;12.50;;;;;;;-10.06;95.59;98816.86;109748;1250;73574;-63
2024/01/17 01:44:45;;;;;;;40.50;13.50;;;;;;;-10.01;97.84;98805.64;109482;1251;58118;-62
2024/01/17 01:47:33;;;;;;;24.70;9.10;;;;;;;-9.95;99.41;98801.42;109823;1250;58771;-62
2024/01/17 01:50:21;;;;;;;34.10;12.00;;;;;;;-9.86;99.97;98796.67;109720;1250;72951;-64
2024/01/17 01:53:10;;;;;;;37.80;13.00;;;;;;;-9.77;100.00;98796.86;109553;1251;66580;-63
2024/01/17 01:55:59;;;;;;;31.20;10.10;;;;;;;-9.69;100.00;98797.25;109614;1251;73682;-63
2024/01/17 01:58:48;;;;;;;32.20;10.90;;;;;;;-9.59;100.00;98789.88;109492;1254;58489;-64
2024/01/17 02:01:37;;;;;;;27.80;9.60;;;;;;;-9.46;100.00;98789.15;108949;1250;1002331;-64
2024/01/17 02:04:27;;;;;;;25.30;8.00;;;;;;;-9.34;100.00;98789.64;109081;1250;1002444;-63
2024/01/17 02:07:16;;;;;;;33.60;13.10;;;;;;;-9.25;100.00;98782.78;109787;1250;67811;-63
2024/01/17 02:10:06;;;;;;;33.90;11.50;;;;;;;-9.15;100.00;98778.81;109712;1252;72670;-64
2024/01/17 02:12:54;;;;;;;29.60;10.90;;;;;;;-9.06;100.00;98772.29;108850;1251;1002615;-63
2024/01/17 02:15:42;;;;;;;23.80;8.30;;;;;;;-8.96;100.00;98763.00;109746;1250;58712;-63
2024/01/17 02:18:30;;;;;;;30.90;7.90;;;;;;;-8.89;100.00;98760.62;109647;1250;73126;-63
2024/01/17 02:21:18;;;;;;;25.90;9.00;;;;;;;-8.78;100.00;98757.66;109758;1250;67837;-63
2024/01/17 02:24:15;;;;;;;22.20;7.20;;;;;;;-8.67;100.00;98757.77;109717;1250;71621;-64
2024/01/17 02:27:04;;;;;;;22.70;8.90;;;;;;;-8.56;100.00;98760.13;109653;1251;58484;-64
2024/01/17 02:29:52;;;;;;;25.30;9.60;;;;;;;-8.44;100.00;98759.52;109658;1251;60176;-63
2024/01/17 02:32:45;;;;;;;23.70;9.00;;;;;;;-8.33;100.00;98761.66;109677;1250;72764;-63
2024/01/17 02:35:33;;;;;;;34.20;12.30;;;;;;;-8.23;100.00;98762.66;109022;1250;1002397;-63
2024/01/17 02:38:21;;;;;;;29.10;10.00;;;;;;;-8.11;100.00;98765.83;108976;1250;1002940;-63
2024/01/17 02:41:09;;;;;;;20.00;7.00;;;;;;;-8.02;100.00;98768.05;108955;1250;1002047;-63
2024/01/17 02:43:57;;;;;;;30.10;10.10;;;;;;;-7.95;100.00;98767.89;109632;1251;61165;-64
2024/01/17 02:46:45;;;;;;;22.70;8.80;;;;;;;-7.88;100.00;98761.16;108889;1251;1002545;-63
2024/01/17 02:49:34;;;;;;;26.90;11.10;;;;;;;-7.80;100.00;98758.23;109643;1250;67841;-64
2024/01/17 02:52:22;;;;;;;29.30;9.90;;;;;;;-7.76;100.00;98748.48;109631;1250;73672;-64
2024/01/17 02:55:13;;;;;;;27.80;10.80;;;;;;;-7.69;100.00;98740.42;109736;1250;58587;-65
2024/01/17 02:58:01;;;;;;;34.80;13.90;;;;;;;-7.64;100.00;98737.34;109766;1250;60131;-63
2024/01/17 03:00:49;;;;;;;28.50;10.40;;;;;;;-7.58;100.00;98727.73;109657;1251;73081;-64
2024/01/17 03:03:37;;;;;;;31.80;12.60;;;;;;;-7.53;100.00;98726.21;109690;1250;67895;-63
2024/01/17 03:06:25;;;;;;;32.90;13.00;;;;;;;-7.53;100.00;98711.91;109694;1251;71146;-63
2024/01/17 03:09:13;;;;;;;26.50;9.60;;;;;;;-7.43;100.00;98709.24;109596;1250;57394;-63
2024/01/17 03:12:02;;;;;;;27.40;9.80;;;;;;;-7.40;100.00;98709.50;109725;1250;61025;-64
2024/01/17 03:14:51;;;;;;;33.60;12.10;;;;;;;-7.36;100.00;98712.34;109741;1250;73182;-64
2024/01/17 03:17:39;;;;;;;32.20;11.80;;;;;;;-7.30;100.00;98714.61;109595;1250;67935;-63
2024/01/17 03:20:28;;;;;;;34.30;13.30;;;;;;;-7.26;100.00;98716.21;109698;1250;71137;-64
2024/01/17 03:23:16;;;;;;;19.20;8.60;;;;;;;-7.27;100.00;98707.97;109725;1250;57355;-63
2024/01/17 03:26:04;;;;;;;26.80;10.30;;;;;;;-7.26;100.00;98709.66;109725;1250;60029;-63
2024/01/17 03:28:52;;;;;;;36.60;12.50;;;;;;;-7.26;100.00;98707.41;109738;1250;72381;-65
2024/01/17 03:31:40;;;;;;;30.60;10.80;;;;;;;-7.26;100.00;98708.95;108975;1250;1002765;-63
2024/01/17 03:34:28;;;;;;;32.80;11.40;;;;;;;-7.26;100.00;98706.05;109737;1250;71402;-63
2024/01/17 03:37:18;;;;;;;33.00;11.30;;;;;;;-7.25;100.00;98699.46;109733;1250;57934;-63
2024/01/17 03:40:07;;;;;;;34.80;13.60;;;;;;;-7.24;100.00;98700.80;109617;1251;60047;-63
2024/01/17 03:42:55;;;;;;;30.80;11.60;;;;;;;-7.19;100.00;98693.80;109747;1250;71580;-62
2024/01/17 03:45:45;;;;;;;35.60;12.70;;;;;;;-7.15;100.00;98696.25;109713;1251;66681;-62
2024/01/17 03:48:33;;;;;;;31.30;12.10;;;;;;;-7.11;100.00;98695.30;108934;1250;1002662;-63
2024/01/17 03:51:21;;;;;;;39.90;15.00;;;;;;;-7.09;100.00;98697.48;109592;1250;58266;-63
2024/01/17 03:54:09;;;;;;;37.60;13.70;;;;;;;-7.03;100.00;98694.73;109629;1251;60084;-63
2024/01/17 03:56:57;;;;;;;34.00;13.90;;;;;;;-6.99;100.00;98689.95;109662;1251;73113;-63
2024/01/17 03:59:45;;;;;;;36.40;14.00;;;;;;;-6.93;100.00;98679.27;109696;1251;66481;-63
2024/01/17 04:02:33;;;;;;;36.60;14.40;;;;;;;-6.91;100.00;98683.69;109618;1251;70505;-63
2024/01/17 04:05:21;;;;;;;37.90;13.70;;;;;;;-6.91;100.00;98683.71;109590;1251;58807;-64
2024/01/17 04:08:09;;;;;;;36.90;14.40;;;;;;;-6.86;100.00;98688.52;109510;1251;61179;-63
2024/01/17 04:10:57;;;;;;;36.60;13.10;;;;;;;-6.84;100.00;98683.16;109596;1250;72825;-64
2024/01/17 04:13:45;;;;;;;31.00;12.10;;;;;;;-6.86;100.00;98688.17;109587;1251;66613;-63
2024/01/17 04:16:36;;;;;;;36.00;13.90;;;;;;;-6.85;100.00;98689.39;109613;1251;73416;-62
2024/01/17 04:19:24;;;;;;;33.50;12.40;;;;;;;-6.85;100.00;98686.98;109649;1251;58577;-63
2024/01/17 04:22:12;;;;;;;40.50;13.80;;;;;;;-6.85;100.00;98687.48;109620;1251;60356;-63
2024/01/17 04:25:01;;;;;;;36.10;14.50;;;;;;;-6.81;100.00;98687.57;109581;1251;72799;-62
2024/01/17 04:27:48;;;;;;;42.20;14.40;;;;;;;-6.83;100.00;98679.84;109584;1251;68973;-63
2024/01/17 04:30:36;;;;;;;34.70;11.90;;;;;;;-6.74;100.00;98680.80;109537;1251;73649;-63
2024/01/17 04:33:25;;;;;;;32.80;12.80;;;;;;;-6.73;100.00;98681.45;109666;1250;57302;-63
2024/01/17 04:36:16;;;;;;;28.80;10.80;;;;;;;-6.71;100.00;98682.75;109609;1251;57848;-64
2024/01/17 04:39:04;;;;;;;23.20;7.80;;;;;;;-6.69;100.00;98686.86;109637;1250;73995;-63
2024/01/17 04:41:52;;;;;;;34.10;13.20;;;;;;;-6.69;100.00;98683.58;109679;1251;66486;-64
2024/01/17 04:44:40;;;;;;;29.90;10.20;;;;;;;-6.67;100.00;98673.16;109681;1251;73168;-66
2024/01/17 04:47:28;;;;;;;25.50;9.60;;;;;;;-6.71;100.00;98660.00;109787;1251;57777;-67
2024/01/17 04:50:16;;;;;;;29.60;10.70;;;;;;;-6.65;100.00;98666.91;109668;1252;59260;-63
2024/01/17 04:53:04;;;;;;;28.00;10.60;;;;;;;-6.63;100.00;98661.32;108251;1263;1002766;-67
2024/01/17 04:55:53;;;;;;;34.60;12.40;;;;;;;-6.61;100.00;98660.03;108807;1263;66712;-63
2024/01/17 04:58:43;;;;;;;36.20;14.50;;;;;;;-6.58;100.00;98659.27;108771;1263;70797;-64
2024/01/17 05:01:31;;;;;;;34.40;13.30;;;;;;;-6.54;100.00;98655.00;108841;1262;59759;-63
2024/01/17 05:04:19;;;;;;;31.10;11.60;;;;;;;-6.49;100.00;98657.27;108101;1262;1015179;-62
2024/01/17 05:07:07;;;;;;;34.10;11.20;;;;;;;-6.46;100.00;98655.45;108773;1262;71762;-64
2024/01/17 05:09:55;;;;;;;41.50;13.80;;;;;;;-6.44;100.00;98649.71;108874;1262;67820;-63
2024/01/17 05:12:43;;;;;;;34.00;13.10;;;;;;;-6.41;100.00;98643.90;108783;1263;72232;-65
2024/01/17 05:15:31;;;;;;;39.30;15.00;;;;;;;-6.39;100.00;98645.73;108798;1262;57288;-65
2024/01/17 05:18:18;;;;;;;25.10;10.50;;;;;;;-6.37;100.00;98637.91;108722;1262;59978;-67
2024/01/17 05:21:07;;;;;;;34.20;13.10;;;;;;;-6.36;100.00;98633.90;108805;1263;72735;-65
2024/01/17 05:23:55;;;;;;;32.90;11.80;;;;;;;-6.33;100.00;98627.94;108761;1263;67602;-65
2024/01/17 05:26:44;;;;;;;34.40;13.20;;;;;;;-6.29;100.00;98628.84;108519;1262;73422;-68
2024/01/17 05:29:35;;;;;;;35.60;12.40;;;;;;;-6.26;100.00;98624.80;108619;1263;58725;-67
2024/01/17 05:32:23;;;;;;;38.30;14.70;;;;;;;-6.24;100.00;98624.02;108095;1263;1003015;-64
2024/01/17 05:35:14;;;;;;;34.40;12.30;;;;;;;-6.21;100.00;98618.40;108849;1263;73805;-65
2024/01/17 05:38:04;;;;;;;32.00;11.10;;;;;;;-6.18;100.00;98612.98;108751;1263;66449;-68
2024/01/17 05:40:52;;;;;;;23.60;9.20;;;;;;;-6.15;100.00;98610.29;107944;1263;1002454;-66
2024/01/17 05:43:40;;;;;;;26.40;10.50;;;;;;;-6.13;100.00;98616.60;108816;1263;59597;-65
2024/01/17 05:46:27;;;;;;;28.60;11.00;;;;;;;-6.14;100.00;98615.23;108841;1262;60937;-66
2024/01/17 05:49:16;;;;;;;29.10;11.80;;;;;;;-6.12;100.00;98609.15;108829;1262;74356;-66
2024/01/17 05:52:04;;;;;;;27.80;10.80;;;;;;;-6.11;100.00;98608.25;108826;1262;66634;-65
2024/01/17 05:54:52;;;;;;;33.00;13.10;;;;;;;-6.09;100.00;98608.88;108770;1263;72813;-66
2024/01/17 05:57:40;;;;;;;33.00;11.60;;;;;;;-6.07;100.00;98611.92;108634;1263;58473;-65
2024/01/17 06:00:28;;;;;;;31.90;11.50;;;;;;;-6.03;100.00;98607.82;108072;1262;1002153;-65
2024/01/17 06:03:16;;;;;;;32.50;12.30;;;;;;;-6.02;100.00;98599.29;108748;1263;72987;-63
2024/01/17 06:06:05;;;;;;;33.90;12.90;;;;;;;-5.97;100.00;98596.04;108822;1262;66576;-64
2024/01/17 06:08:53;;;;;;;27.80;11.70;;;;;;;-5.95;100.00;98586.95;108806;1263;71690;-65
2024/01/17 06:11:40;;;;;;;23.20;9.10;;;;;;;-5.91;100.00;98588.88;108649;1263;57485;-63
2024/01/17 06:14:28;;;;;;;31.40;13.60;;;;;;;-5.88;100.00;98592.94;108739;1266;61160;-64
2024/01/17 06:17:17;;;;;;;35.00;14.10;;;;;;;-5.83;100.00;98582.39;108599;1263;74115;-64
2024/01/17 06:20:05;;;;;;;30.40;11.90;;;;;;;-5.78;100.00;98578.29;108824;1262;67928;-64
2024/01/17 06:22:54;;;;;;;34.90;12.80;;;;;;;-5.75;100.00;98582.64;108675;1262;70491;-66
2024/01/17 06:25:42;;;;;;;26.70;9.70;;;;;;;-5.70;100.00;98584.90;108740;1263;57440;-64
2024/01/17 06:28:33;;;;;;;27.30;11.20;;;;;;;-5.68;100.00;98586.02;108751;1264;61279;-65
2024/01/17 06:31:25;;;;;;;33.50;12.60;;;;;;;-5.60;100.00;98581.94;108749;1263;71627;-61
2024/01/17 06:34:13;;;;;;;30.10;12.60;;;;;;;-5.55;100.00;98588.67;108665;1266;68670;-62
2024/01/17 06:37:01;;;;;;;36.60;14.00;;;;;;;-5.52;100.00;98593.92;108721;1268;72571;-62
2024/01/17 06:39:49;;;;;;;30.10;11.50;;;;;;;-5.48;100.00;98591.69;107846;1264;1002177;-63
2024/01/17 06:42:38;;;;;;;27.00;11.60;;;;;;;-5.44;100.00;98588.98;108659;1268;60050;-62
2024/01/17 06:45:26;;;;;;;31.70;11.60;;;;;;;-5.41;100.00;98584.38;108607;1264;72128;-62
2024/01/17 06:48:14;;;;;;;32.40;12.70;;;;;;;-5.39;100.00;98577.04;108615;1264;67926;-63
2024/01/17 06:51:03;;;;;;;31.90;12.50;;;;;;;-5.35;100.00;98575.52;108761;1264;72671;-63
2024/01/17 06:53:51;;;;;;;37.70;14.30;;;;;;;-5.33;100.00;98568.88;108531;1264;58591;-65
2024/01/17 06:56:39;;;;;;;36.50;12.60;;;;;;;-5.29;100.00;98557.16;108521;1264;59969;-63
2024/01/17 06:59:27;;;;;;;38.00;13.50;;;;;;;-5.29;100.00;98557.67;108668;1266;72674;-64
2024/01/17 07:02:15;;;;;;;36.30;12.10;;;;;;;-5.28;100.00;98553.64;108656;1264;67882;-64
2024/01/17 07:05:03;;;;;;;38.20;14.50;;;;;;;-5.25;100.00;98553.38;108736;1263;73384;-62
2024/01/17 07:07:51;;;;;;;38.20;14.50;;;;;;;-5.25;100.00;98542.30;108568;1266;60214;-65
2024/01/17 07:10:39;;;;;;;36.00;12.40;;;;;;;-5.23;100.00;98540.48;108653;1264;59000;-64
2024/01/17 07:13:26;;;;;;;40.40;15.80;;;;;;;-5.19;100.00;98530.63;108324;1264;73801;-62
2024/01/17 07:16:15;;;;;;;35.60;13.10;;;;;;;-5.15;100.00;98525.50;108759;1263;68826;-64
2024/01/17 07:19:03;;;;;;;34.40;14.00;;;;;;;-5.11;100.00;98524.82;108542;1264;71398;-64
2024/01/17 07:21:51;;;;;;;32.10;12.90;;;;;;;-5.08;100.00;98521.95;107854;1264;1002148;-65
2024/01/17 07:24:39;;;;;;;40.10;15.00;;;;;;;-5.03;100.00;98522.63;108035;1264;1002492;-62
2024/01/17 07:27:28;;;;;;;44.10;14.70;;;;;;;-5.01;100.00;98512.66;107859;1264;1003025;-64
2024/01/17 07:30:16;;;;;;;41.20;15.80;;;;;;;-4.96;100.00;98503.83;108787;1264;67890;-64
2024/01/17 07:33:04;;;;;;;42.20;16.90;;;;;;;-4.92;100.00;98498.67;108667;1264;73300;-65
2024/01/17 07:35:52;;;;;;;35.40;14.00;;;;;;;-4.90;100.00;98494.79;108614;1264;58684;-64
2024/01/17 07:38:40;;;;;;;40.50;15.80;;;;;;;-4.90;100.00;98491.81;108730;1264;60085;-64
2024/01/17 07:41:29;;;;;;;40.50;15.60;;;;;;;-4.87;100.00;98479.27;108660;1264;72650;-63
2024/01/17 07:44:17;;;;;;;37.90;13.50;;;;;;;-4.85;100.00;98470.50;108692;1264;67924;-62
2024/01/17 07:47:05;;;;;;;37.60;14.60;;;;;;;-4.81;100.00;98469.85;108753;1265;73608;-63
2024/01/17 07:49:55;;;;;;;31.60;12.10;;;;;;;-4.79;100.00;98462.80;108635;1265;59768;-63
2024/01/17 07:52:43;;;;;;;39.50;13.50;;;;;;;-4.72;100.00;98455.13;108682;1263;59274;-64
2024/01/17 07:55:31;;;;;;;36.50;14.30;;;;;;;-4.69;100.00;98449.10;108762;1264;72956;-61
2024/01/17 07:58:19;;;;;;;43.60;16.80;;;;;;;-4.66;100.00;98438.24;108657;1264;68702;-63
2024/01/17 08:01:07;;;;;;;39.30;14.90;;;;;;;-4.62;100.00;98429.41;108664;1264;73862;-63
2024/01/17 08:03:55;;;;;;;37.80;13.70;;;;;;;-4.59;100.00;98424.80;108642;1264;57387;-62
2024/01/17 08:06:43;;;;;;;40.60;15.10;;;;;;;-4.53;100.00;98425.59;108710;1264;61198;-65
2024/01/17 08:09:32;;;;;;;33.80;12.50;;;;;;;-4.51;100.00;98431.76;108559;1264;72095;-65
2024/01/17 08:12:20;;;;;;;39.90;14.40;;;;;;;-4.47;100.00;98429.64;108690;1266;67714;-62
2024/01/17 08:15:08;;;;;;;37.80;15.00;;;;;;;-4.44;100.00;98434.56;108678;1264;71203;-64
2024/01/17 08:17:56;;;;;;;30.20;13.40;;;;;;;-4.40;100.00;98432.52;108653;1266;57491;-64
2024/01/17 08:20:44;;;;;;;30.40;11.00;;;;;;;-4.40;100.00;98434.38;108589;1264;60394;-64
2024/01/17 08:23:34;;;;;;;34.40;12.90;;;;;;;-4.38;100.00;98430.69;108778;1264;71786;-64
2024/01/17 08:26:22;;;;;;;26.50;10.70;;;;;;;-4.36;100.00;98426.79;108789;1264;66731;-62
2024/01/17 08:29:10;;;;;;;34.60;13.30;;;;;;;-4.34;100.00;98429.27;108764;1265;73467;-63
2024/01/17 08:31:58;;;;;;;36.40;14.20;;;;;;;-4.29;100.00;98429.42;108702;1264;57302;-62
2024/01/17 08:34:46;;;;;;;29.20;10.10;;;;;;;-4.25;100.00;98428.58;108014;1265;1002091;-64
2024/01/17 08:37:34;;;;;;;31.60;12.30;;;;;;;-4.19;100.00;98421.54;108585;1264;71953;-67
2024/01/17 08:40:22;;;;;;;27.50;11.20;;;;;;;-4.15;100.00;98406.32;108014;1266;1002297;-62
2024/01/17 08:43:11;;;;;;;29.60;12.40;;;;;;;-4.04;100.00;98405.31;108565;1264;70442;-65
2024/01/17 08:46:01;;;;;;;30.60;11.90;;;;;;;-3.98;100.00;98402.09;108768;1265;58551;-65
2024/01/17 08:48:50;;;;;;;25.70;10.50;;;;;;;-3.89;100.00;98394.05;108802;1264;58831;-64
2024/01/17 08:51:38;;;;;;;28.90;10.90;;;;;;;-3.82;100.00;98386.13;108755;1266;74060;-63
2024/01/17 08:54:26;;;;;;;28.90;11.70;;;;;;;-3.77;100.00;98385.85;108706;1265;67865;-63
2024/01/17 08:57:14;;;;;;;28.20;11.10;;;;;;;-3.71;100.00;98373.98;108675;1264;73602;-63
2024/01/17 09:00:06;;;;;;;29.90;11.80;;;;;;;-3.65;100.00;98372.49;107986;1264;1003030;-63
2024/01/17 09:02:54;;;;;;;25.80;10.60;;;;;;;-3.60;100.00;98372.25;108713;1265;60228;-63
2024/01/17 09:05:42;;;;;;;26.20;9.90;;;;;;;-3.57;100.00;98371.10;108591;1265;71896;-63
2024/01/17 09:08:30;;;;;;;25.60;10.90;;;;;;;-3.51;100.00;98372.38;108664;1266;69025;-63
2024/01/17 09:11:19;;;;;;;29.30;10.70;;;;;;;-3.47;100.00;98368.54;108615;1264;73920;-63
2024/01/17 09:14:07;;;;;;;25.30;9.10;;;;;;;-3.42;100.00;98364.33;108720;1264;58639;-64
2024/01/17 09:16:55;;;;;;;31.10;11.80;;;;;;;-3.38;100.00;98360.84;108667;1264;59982;-63
2024/01/17 09:19:43;;;;;;;28.30;11.60;;;;;;;-3.35;100.00;98354.27;108670;1264;73542;-67
2024/01/17 09:22:31;;;;;;;28.40;11.40;;;;;;;-3.29;100.00;98346.33;108755;1264;69045;-64
2024/01/17 09:25:21;;;;;;;26.50;9.80;;;;;;;-3.23;100.00;98336.34;108752;1264;72834;-64
2024/01/17 09:28:10;;;;;;;30.90;11.30;;;;;;;-3.16;100.00;98333.23;108536;1266;58375;-64
2024/01/17 09:30:58;;;;;;;30.40;11.90;;;;;;;-3.12;100.00;98335.46;108520;1265;207142;-63
2024/01/17 09:33:46;;;;;;;27.40;11.20;;;;;;;-3.05;100.00;98330.94;108586;1265;73688;-62
2024/01/17 09:36:34;;;;;;;28.40;10.70;;;;;;;-2.96;100.00;98331.73;108725;1265;67691;-64
2024/01/17 09:39:23;;;;;;;29.30;12.20;;;;;;;-2.87;100.00;98322.92;108568;1266;72350;-63
2024/01/17 09:42:13;;;;;;;23.90;9.20;;;;;;;-2.80;100.00;98315.48;108699;1265;57327;-66
2024/01/17 09:45:02;;;;;;;23.40;9.90;;;;;;;-2.79;100.00;98313.84;107837;1266;1002761;-62
2024/01/17 09:47:54;;;;;;;23.80;9.30;;;;;;;-2.82;100.00;98306.54;108606;1266;74177;-62
2024/01/17 09:50:43;;;;;;;31.40;11.90;;;;;;;-2.85;100.00;98301.34;108548;1263;69070;-60
2024/01/17 09:53:34;;;;;;;26.00;11.10;;;;;;;-2.79;100.00;98296.48;108775;1263;73393;-60
2024/01/17 09:56:24;;;;;;;33.70;12.30;;;;;;;-2.74;100.00;98291.06;108631;1264;57318;-60
2024/01/17 09:59:14;;;;;;;31.80;11.90;;;;;;;-2.73;100.00;98288.02;108635;1264;60373;-62
2024/01/17 10:02:06;;;;;;;23.00;10.40;;;;;;;-2.73;100.00;98282.30;108740;1264;73022;-60
2024/01/17 10:04:57;;;;;;;26.50;11.10;;;;;;;-2.69;100.00;98278.13;108641;1264;67851;-63
2024/01/17 10:07:45;;;;;;;29.60;11.80;;;;;;;-2.69;100.00;98282.60;108536;1269;72725;-63
2024/01/17 10:10:33;;;;;;;28.30;10.90;;;;;;;-2.72;100.00;98271.86;108374;1266;57480;-62
2024/01/17 10:13:20;;;;;;;26.60;11.60;;;;;;;-2.73;100.00;98258.35;108737;1264;60135;-65
2024/01/17 10:16:08;;;;;;;26.50;10.10;;;;;;;-2.72;100.00;98257.42;107991;1264;1002160;-62
2024/01/17 10:18:56;;;;;;;24.00;10.00;;;;;;;-2.76;100.00;98241.99;107819;1264;1002699;-62
2024/01/17 10:21:44;;;;;;;22.70;9.00;;;;;;;-2.68;100.00;98237.77;107126;1264;1002281;-64
2024/01/17 10:24:35;;;;;;;20.50;8.10;;;;;;;-2.70;100.00;98234.94;107857;1264;1002862;-64
2024/01/17 10:27:23;;;;;;;24.40;9.70;;;;;;;-2.70;100.00;98227.30;108554;1264;60148;-63
2024/01/17 10:30:13;;;;;;;24.80;10.40;;;;;;;-2.69;100.00;98222.59;108668;1264;74347;-64
2024/01/17 10:33:02;;;;;;;26.40;10.80;;;;;;;-2.63;100.00;98213.38;108475;1264;68602;-61
2024/01/17 10:35:50;;;;;;;31.00;12.70;;;;;;;-2.59;100.00;98210.22;108750;1264;71497;-64
2024/01/17 10:38:39;;;;;;;36.20;14.00;;;;;;;-2.51;100.00;98199.74;107939;1266;1002181;-62
2024/01/17 10:41:27;;;;;;;30.00;12.40;;;;;;;-2.48;100.00;98194.34;108598;1263;60350;-65
2024/01/17 10:44:18;;;;;;;25.70;10.10;;;;;;;-2.54;100.00;98194.67;108638;1263;73150;-64
2024/01/17 10:47:06;;;;;;;26.50;10.80;;;;;;;-2.50;100.00;98189.95;108497;1267;67605;-63
2024/01/17 10:49:58;;;;;;;28.30;11.80;;;;;;;-2.48;100.00;98191.40;108566;1264;73561;-63
2024/01/17 10:52:48;;;;;;;28.20;11.10;;;;;;;-2.47;100.00;98185.60;108665;1264;59870;-62
2024/01/17 10:55:44;;;;;;;37.50;13.80;;;;;;;-2.44;100.00;98180.59;108554;1269;60238;-62
2024/01/17 10:58:35;;;;;;;29.30;12.60;;;;;;;-2.46;100.00;98175.45;108596;1263;73166;-63
2024/01/17 11:01:31;;;;;;;33.70;12.00;;;;;;;-2.43;100.00;98171.84;108697;1264;67707;-62
2024/01/17 11:04:34;;;;;;;28.70;11.70;;;;;;;-2.40;100.00;98163.00;108597;1264;72714;-64
2024/01/17 11:07:23;;;;;;;24.40;10.30;;;;;;;-2.40;100.00;98164.52;108561;1264;57812;-63
2024/01/17 11:10:12;;;;;;;26.20;11.70;;;;;;;-2.38;100.00;98150.55;108558;1264;59156;-64
2024/01/17 11:12:59;;;;;;;24.60;9.50;;;;;;;-2.32;100.00;98141.02;108682;1264;72777;-64
2024/01/17 11:15:50;;;;;;;22.20;10.10;;;;;;;-2.23;100.00;98131.33;108232;1269;69098;-63
2024/01/17 11:18:41;;;;;;;21.60;10.10;;;;;;;-2.20;100.00;98128.70;108258;1269;72666;-63
2024/01/17 11:21:31;;;;;;;19.20;9.00;;;;;;;-2.14;100.00;98125.26;108203;1270;58077;-61
2024/01/17 11:25:17;;;;;;;26.20;10.30;;;;;;;-2.08;100.00;98118.98;108230;1270;60007;-66
2024/01/17 11:28:21;;;;;;;22.50;9.80;;;;;;;-2.06;99.72;98109.84;107652;1276;73948;-64
2024/01/17 11:31:28;;;;;;;22.30;9.70;;;;;;;-1.98;99.37;98100.39;107612;1276;68132;-63
2024/01/17 11:34:16;;;;;;;25.40;10.90;;;;;;;-1.99;98.35;98097.64;107596;1276;71466;-65
2024/01/17 11:37:05;;;;;;;26.20;11.00;;;;;;;-1.97;97.77;98086.41;106780;1276;1002116;-64
2024/01/17 11:39:57;;;;;;;20.40;8.60;;;;;;;-1.95;97.71;98084.86;107523;1277;60115;-62
2024/01/17 11:42:45;;;;;;;22.20;10.30;;;;;;;-1.90;97.23;98072.09;107156;1277;75184;-64
2024/01/17 11:45:34;;;;;;;28.10;11.10;;;;;;;-1.90;96.93;98065.99;107577;1276;68630;-64
2024/01/17 11:48:30;;;;;;;24.10;10.50;;;;;;;-1.87;96.39;98051.73;106874;1274;1002886;-62
2024/01/17 11:51:24;;;;;;;21.70;10.10;;;;;;;-1.84;96.01;98041.80;107746;1273;57491;-62
2024/01/17 11:54:14;;;;;;;16.50;7.30;;;;;;;-1.82;95.70;98038.42;107820;1273;60475;-63
2024/01/17 11:57:06;;;;;;;25.20;10.30;;;;;;;-1.78;95.78;98021.63;107796;1275;72871;-63
2024/01/17 12:00:11;;;;;;;22.70;9.70;;;;;;;-1.78;95.29;98014.86;107756;1277;67653;-63
2024/01/17 12:03:00;;;;;;;23.60;11.70;;;;;;;-1.76;95.00;98015.57;107646;1273;72653;-63
2024/01/17 12:05:48;;;;;;;23.10;10.70;;;;;;;-1.74;94.55;98010.11;108384;1270;57489;-63
2024/01/17 12:08:38;;;;;;;19.00;9.30;;;;;;;-1.77;94.31;98010.62;108617;1266;61410;-65
2024/01/17 12:11:26;;;;;;;22.50;10.10;;;;;;;-1.78;93.99;98004.07;108593;1266;73176;-64
2024/01/17 12:14:17;;;;;;;24.20;10.70;;;;;;;-1.76;93.85;98004.48;107847;1266;1002420;-63
2024/01/17 12:17:08;;;;;;;20.40;8.90;;;;;;;-1.76;93.79;97997.70;108546;1266;72487;-63
2024/01/17 12:19:55;;;;;;;21.40;9.00;;;;;;;-1.75;93.31;97994.14;108650;1264;58065;-62
2024/01/17 12:22:50;;;;;;;18.80;6.40;;;;;;;-1.78;93.10;97987.77;108705;1264;58726;-63
2024/01/17 12:25:39;;;;;;;21.00;9.60;;;;;;;-1.79;92.90;97975.64;108587;1264;73024;-62
2024/01/17 12:28:29;;;;;;;21.10;10.20;;;;;;;-1.79;92.73;97972.17;108042;1264;1002460;-64
2024/01/17 12:31:18;;;;;;;19.40;9.80;;;;;;;-1.77;92.51;97969.96;108567;1264;73328;-64
2024/01/17 12:34:07;;;;;;;23.00;9.20;;;;;;;-1.73;92.70;97970.23;108755;1264;58437;-63
2024/01/17 12:36:55;;;;;;;21.10;8.90;;;;;;;-1.72;92.34;97969.13;108682;1264;60365;-62
2024/01/17 12:39:43;;;;;;;19.50;7.60;;;;;;;-1.75;91.86;97962.52;108767;1264;72760;-66